sensor_id;sensor_type;location;lat;lon;timestamp;P1;durP1;ratioP1;P2;durP2;ratioP2
23826;SDS011;12094;50.822;4.376;2022-09-09T00:04:29;6.30;;;1.50;;
23826;SDS011;12094;50.822;4.376;2022-09-09T00:15:38;11.70;;;1.30;;
23826;SDS011;12094;50.822;4.376;2022-09-09T00:18:17;8.23;;;1.50;;
23826;SDS011;12094;50.822;4.376;2022-09-09T00:21:15;5.07;;;1.73;;
23826;SDS011;12094;50.822;4.376;2022-09-09T00:23:48;7.25;;;1.67;;
23826;SDS011;12094;50.822;4.376;2022-09-09T00:32:12;4.97;;;1.52;;
23826;SDS011;12094;50.822;4.376;2022-09-09T00:37:58;10.55;;;1.40;;
23826;SDS011;12094;50.822;4.376;2022-09-09T00:40:41;7.72;;;1.20;;
23826;SDS011;12094;50.822;4.376;2022-09-09T00:48:30;6.72;;;1.45;;
23826;SDS011;12094;50.822;4.376;2022-09-09T00:51:25;8.43;;;1.63;;
23826;SDS011;12094;50.822;4.376;2022-09-09T00:54:13;5.60;;;1.63;;
23826;SDS011;12094;50.822;4.376;2022-09-09T00:56:59;4.38;;;1.50;;
23826;SDS011;12094;50.822;4.376;2022-09-09T00:59:32;8.35;;;1.90;;
23826;SDS011;12094;50.822;4.376;2022-09-09T01:02:21;5.07;;;1.40;;
23826;SDS011;12094;50.822;4.376;2022-09-09T01:05:00;6.55;;;1.92;;
23826;SDS011;12094;50.822;4.376;2022-09-09T01:07:36;8.52;;;1.52;;
23826;SDS011;12094;50.822;4.376;2022-09-09T01:10:05;4.60;;;1.50;;
23826;SDS011;12094;50.822;4.376;2022-09-09T01:12:44;8.80;;;1.27;;
23826;SDS011;12094;50.822;4.376;2022-09-09T01:15:21;7.78;;;1.70;;
23826;SDS011;12094;50.822;4.376;2022-09-09T01:26:52;7.95;;;1.88;;
23826;SDS011;12094;50.822;4.376;2022-09-09T01:29:21;3.85;;;1.33;;
23826;SDS011;12094;50.822;4.376;2022-09-09T01:31:55;9.02;;;2.35;;
23826;SDS011;12094;50.822;4.376;2022-09-09T01:34:24;7.60;;;1.90;;
23826;SDS011;12094;50.822;4.376;2022-09-09T01:39:29;4.30;;;2.20;;
23826;SDS011;12094;50.822;4.376;2022-09-09T01:42:06;8.35;;;1.83;;
23826;SDS011;12094;50.822;4.376;2022-09-09T01:44:38;8.63;;;1.80;;
23826;SDS011;12094;50.822;4.376;2022-09-09T01:47:07;8.30;;;1.80;;
23826;SDS011;12094;50.822;4.376;2022-09-09T01:49:56;10.98;;;2.05;;
23826;SDS011;12094;50.822;4.376;2022-09-09T01:52:27;11.38;;;2.10;;
23826;SDS011;12094;50.822;4.376;2022-09-09T01:54:56;7.22;;;1.55;;
23826;SDS011;12094;50.822;4.376;2022-09-09T01:57:32;11.20;;;1.65;;
23826;SDS011;12094;50.822;4.376;2022-09-09T02:00:11;7.97;;;2.42;;
23826;SDS011;12094;50.822;4.376;2022-09-09T02:05:58;16.70;;;2.33;;
23826;SDS011;12094;50.822;4.376;2022-09-09T02:08:57;8.02;;;1.92;;
23826;SDS011;12094;50.822;4.376;2022-09-09T02:11:28;10.82;;;2.30;;
23826;SDS011;12094;50.822;4.376;2022-09-09T02:14:12;13.68;;;2.70;;
23826;SDS011;12094;50.822;4.376;2022-09-09T02:16:52;11.13;;;2.08;;
23826;SDS011;12094;50.822;4.376;2022-09-09T02:19:32;9.02;;;2.15;;
23826;SDS011;12094;50.822;4.376;2022-09-09T02:22:19;14.68;;;2.10;;
23826;SDS011;12094;50.822;4.376;2022-09-09T02:24:48;8.88;;;2.35;;
23826;SDS011;12094;50.822;4.376;2022-09-09T02:27:24;12.68;;;2.30;;
23826;SDS011;12094;50.822;4.376;2022-09-09T02:29:54;15.15;;;2.35;;
23826;SDS011;12094;50.822;4.376;2022-09-09T02:32:34;13.95;;;2.55;;
23826;SDS011;12094;50.822;4.376;2022-09-09T02:35:06;11.02;;;2.00;;
23826;SDS011;12094;50.822;4.376;2022-09-09T02:37:39;10.00;;;2.28;;
23826;SDS011;12094;50.822;4.376;2022-09-09T02:40:10;10.48;;;2.17;;
23826;SDS011;12094;50.822;4.376;2022-09-09T02:42:45;12.57;;;2.45;;
23826;SDS011;12094;50.822;4.376;2022-09-09T02:45:14;16.40;;;2.40;;
23826;SDS011;12094;50.822;4.376;2022-09-09T02:50:42;10.65;;;1.90;;
23826;SDS011;12094;50.822;4.376;2022-09-09T02:56:03;11.95;;;2.40;;
23826;SDS011;12094;50.822;4.376;2022-09-09T02:58:42;16.77;;;2.67;;
23826;SDS011;12094;50.822;4.376;2022-09-09T03:01:10;10.10;;;2.13;;
23826;SDS011;12094;50.822;4.376;2022-09-09T03:03:37;9.45;;;1.95;;
23826;SDS011;12094;50.822;4.376;2022-09-09T03:06:09;13.95;;;2.53;;
23826;SDS011;12094;50.822;4.376;2022-09-09T03:08:40;13.00;;;2.40;;
23826;SDS011;12094;50.822;4.376;2022-09-09T03:11:18;12.13;;;2.13;;
23826;SDS011;12094;50.822;4.376;2022-09-09T03:13:45;13.32;;;2.10;;
23826;SDS011;12094;50.822;4.376;2022-09-09T03:16:13;15.02;;;2.40;;
23826;SDS011;12094;50.822;4.376;2022-09-09T03:18:45;11.18;;;3.47;;
23826;SDS011;12094;50.822;4.376;2022-09-09T03:21:15;13.50;;;2.33;;
23826;SDS011;12094;50.822;4.376;2022-09-09T03:23:43;11.73;;;2.25;;
23826;SDS011;12094;50.822;4.376;2022-09-09T03:28:44;10.65;;;2.47;;
23826;SDS011;12094;50.822;4.376;2022-09-09T03:31:16;11.30;;;2.30;;
23826;SDS011;12094;50.822;4.376;2022-09-09T03:36:16;11.75;;;2.50;;
23826;SDS011;12094;50.822;4.376;2022-09-09T03:41:15;10.32;;;2.38;;
23826;SDS011;12094;50.822;4.376;2022-09-09T03:43:42;15.68;;;2.83;;
23826;SDS011;12094;50.822;4.376;2022-09-09T03:46:11;9.18;;;2.30;;
23826;SDS011;12094;50.822;4.376;2022-09-09T03:48:38;10.85;;;2.75;;
23826;SDS011;12094;50.822;4.376;2022-09-09T03:51:05;13.55;;;2.20;;
23826;SDS011;12094;50.822;4.376;2022-09-09T03:53:33;12.13;;;1.95;;
23826;SDS011;12094;50.822;4.376;2022-09-09T03:56:02;13.45;;;2.40;;
23826;SDS011;12094;50.822;4.376;2022-09-09T03:58:31;10.05;;;2.50;;
23826;SDS011;12094;50.822;4.376;2022-09-09T04:01:07;9.57;;;1.85;;
23826;SDS011;12094;50.822;4.376;2022-09-09T04:03:39;13.20;;;2.10;;
23826;SDS011;12094;50.822;4.376;2022-09-09T04:06:08;16.90;;;2.40;;
23826;SDS011;12094;50.822;4.376;2022-09-09T04:08:39;15.63;;;2.80;;
23826;SDS011;12094;50.822;4.376;2022-09-09T04:11:06;17.40;;;2.92;;
23826;SDS011;12094;50.822;4.376;2022-09-09T04:13:39;9.77;;;2.40;;
23826;SDS011;12094;50.822;4.376;2022-09-09T04:16:10;11.18;;;2.42;;
23826;SDS011;12094;50.822;4.376;2022-09-09T04:18:41;13.73;;;2.67;;
23826;SDS011;12094;50.822;4.376;2022-09-09T04:21:12;14.82;;;2.95;;
23826;SDS011;12094;50.822;4.376;2022-09-09T04:23:39;18.35;;;2.70;;
23826;SDS011;12094;50.822;4.376;2022-09-09T04:26:09;16.45;;;2.88;;
23826;SDS011;12094;50.822;4.376;2022-09-09T04:28:38;10.82;;;2.40;;
23826;SDS011;12094;50.822;4.376;2022-09-09T04:31:21;11.40;;;2.50;;
23826;SDS011;12094;50.822;4.376;2022-09-09T04:36:25;17.13;;;2.97;;
23826;SDS011;12094;50.822;4.376;2022-09-09T04:41:29;17.48;;;3.20;;
23826;SDS011;12094;50.822;4.376;2022-09-09T04:43:58;15.85;;;2.85;;
23826;SDS011;12094;50.822;4.376;2022-09-09T04:46:27;13.90;;;2.47;;
23826;SDS011;12094;50.822;4.376;2022-09-09T04:48:53;15.82;;;3.10;;
23826;SDS011;12094;50.822;4.376;2022-09-09T04:51:29;13.50;;;2.70;;
23826;SDS011;12094;50.822;4.376;2022-09-09T04:53:58;13.15;;;2.60;;
23826;SDS011;12094;50.822;4.376;2022-09-09T04:56:26;11.55;;;2.47;;
23826;SDS011;12094;50.822;4.376;2022-09-09T04:58:57;14.32;;;2.22;;
23826;SDS011;12094;50.822;4.376;2022-09-09T05:01:45;10.57;;;2.40;;
23826;SDS011;12094;50.822;4.376;2022-09-09T05:04:13;13.00;;;2.38;;
23826;SDS011;12094;50.822;4.376;2022-09-09T05:06:44;15.02;;;3.45;;
23826;SDS011;12094;50.822;4.376;2022-09-09T05:09:14;10.15;;;2.17;;
23826;SDS011;12094;50.822;4.376;2022-09-09T05:11:43;14.40;;;3.33;;
23826;SDS011;12094;50.822;4.376;2022-09-09T05:14:19;14.05;;;3.33;;
23826;SDS011;12094;50.822;4.376;2022-09-09T05:16:47;15.20;;;2.92;;
23826;SDS011;12094;50.822;4.376;2022-09-09T05:19:18;20.60;;;2.95;;
23826;SDS011;12094;50.822;4.376;2022-09-09T05:21:47;13.88;;;2.65;;
23826;SDS011;12094;50.822;4.376;2022-09-09T05:24:18;13.27;;;2.80;;
23826;SDS011;12094;50.822;4.376;2022-09-09T05:26:48;13.68;;;3.05;;
23826;SDS011;12094;50.822;4.376;2022-09-09T05:29:16;17.58;;;2.90;;
23826;SDS011;12094;50.822;4.376;2022-09-09T05:31:47;16.77;;;3.03;;
23826;SDS011;12094;50.822;4.376;2022-09-09T05:34:18;17.77;;;3.50;;
23826;SDS011;12094;50.822;4.376;2022-09-09T05:36:50;16.88;;;3.03;;
23826;SDS011;12094;50.822;4.376;2022-09-09T05:39:20;11.02;;;3.03;;
23826;SDS011;12094;50.822;4.376;2022-09-09T05:41:48;14.75;;;2.70;;
23826;SDS011;12094;50.822;4.376;2022-09-09T05:44:16;19.08;;;3.47;;
23826;SDS011;12094;50.822;4.376;2022-09-09T05:46:47;14.80;;;3.33;;
23826;SDS011;12094;50.822;4.376;2022-09-09T05:49:16;19.13;;;3.58;;
23826;SDS011;12094;50.822;4.376;2022-09-09T05:51:45;17.90;;;2.92;;
23826;SDS011;12094;50.822;4.376;2022-09-09T05:54:13;13.13;;;2.97;;
23826;SDS011;12094;50.822;4.376;2022-09-09T05:56:45;12.50;;;3.08;;
23826;SDS011;12094;50.822;4.376;2022-09-09T06:04:25;19.27;;;2.80;;
23826;SDS011;12094;50.822;4.376;2022-09-09T06:06:53;15.02;;;2.45;;
23826;SDS011;12094;50.822;4.376;2022-09-09T06:09:23;15.40;;;3.42;;
23826;SDS011;12094;50.822;4.376;2022-09-09T06:11:50;17.95;;;2.67;;
23826;SDS011;12094;50.822;4.376;2022-09-09T06:14:22;13.05;;;2.88;;
23826;SDS011;12094;50.822;4.376;2022-09-09T06:16:52;14.57;;;3.42;;
23826;SDS011;12094;50.822;4.376;2022-09-09T06:19:22;19.67;;;2.60;;
23826;SDS011;12094;50.822;4.376;2022-09-09T06:21:50;10.23;;;2.33;;
23826;SDS011;12094;50.822;4.376;2022-09-09T06:24:17;16.55;;;3.22;;
23826;SDS011;12094;50.822;4.376;2022-09-09T06:26:45;10.18;;;1.98;;
23826;SDS011;12094;50.822;4.376;2022-09-09T06:29:18;13.63;;;3.45;;
23826;SDS011;12094;50.822;4.376;2022-09-09T06:31:46;12.38;;;2.00;;
23826;SDS011;12094;50.822;4.376;2022-09-09T06:34:22;14.27;;;2.85;;
23826;SDS011;12094;50.822;4.376;2022-09-09T06:36:53;12.65;;;2.28;;
23826;SDS011;12094;50.822;4.376;2022-09-09T06:39:21;15.65;;;2.88;;
23826;SDS011;12094;50.822;4.376;2022-09-09T06:41:49;9.77;;;2.30;;
23826;SDS011;12094;50.822;4.376;2022-09-09T06:44:57;12.55;;;2.67;;
23826;SDS011;12094;50.822;4.376;2022-09-09T06:47:49;11.93;;;2.28;;
23826;SDS011;12094;50.822;4.376;2022-09-09T06:50:19;10.95;;;2.33;;
23826;SDS011;12094;50.822;4.376;2022-09-09T06:52:49;17.92;;;2.40;;
23826;SDS011;12094;50.822;4.376;2022-09-09T06:55:17;10.88;;;2.80;;
23826;SDS011;12094;50.822;4.376;2022-09-09T06:57:46;11.57;;;2.90;;
23826;SDS011;12094;50.822;4.376;2022-09-09T07:00:19;14.63;;;2.72;;
23826;SDS011;12094;50.822;4.376;2022-09-09T07:02:46;16.50;;;2.42;;
23826;SDS011;12094;50.822;4.376;2022-09-09T07:05:14;10.88;;;3.05;;
23826;SDS011;12094;50.822;4.376;2022-09-09T07:07:44;13.50;;;2.80;;
23826;SDS011;12094;50.822;4.376;2022-09-09T07:10:13;10.15;;;2.33;;
23826;SDS011;12094;50.822;4.376;2022-09-09T07:12:40;9.68;;;2.15;;
23826;SDS011;12094;50.822;4.376;2022-09-09T07:15:09;9.13;;;1.95;;
23826;SDS011;12094;50.822;4.376;2022-09-09T07:17:40;10.13;;;2.65;;
23826;SDS011;12094;50.822;4.376;2022-09-09T07:20:07;10.35;;;2.47;;
23826;SDS011;12094;50.822;4.376;2022-09-09T07:22:34;11.50;;;2.70;;
23826;SDS011;12094;50.822;4.376;2022-09-09T07:25:01;4.53;;;1.40;;
23826;SDS011;12094;50.822;4.376;2022-09-09T07:27:28;12.52;;;2.22;;
23826;SDS011;12094;50.822;4.376;2022-09-09T07:29:56;12.02;;;2.20;;
23826;SDS011;12094;50.822;4.376;2022-09-09T07:32:24;11.27;;;2.50;;
23826;SDS011;12094;50.822;4.376;2022-09-09T07:34:52;10.05;;;2.42;;
23826;SDS011;12094;50.822;4.376;2022-09-09T07:37:19;12.20;;;2.58;;
23826;SDS011;12094;50.822;4.376;2022-09-09T07:39:48;4.60;;;1.40;;
23826;SDS011;12094;50.822;4.376;2022-09-09T07:42:17;12.15;;;2.78;;
23826;SDS011;12094;50.822;4.376;2022-09-09T07:44:46;12.00;;;2.25;;
23826;SDS011;12094;50.822;4.376;2022-09-09T07:47:15;10.10;;;3.20;;
23826;SDS011;12094;50.822;4.376;2022-09-09T07:49:46;12.52;;;2.30;;
23826;SDS011;12094;50.822;4.376;2022-09-09T07:52:20;12.77;;;2.22;;
23826;SDS011;12094;50.822;4.376;2022-09-09T07:54:52;12.30;;;2.40;;
23826;SDS011;12094;50.822;4.376;2022-09-09T07:57:19;15.07;;;2.80;;
23826;SDS011;12094;50.822;4.376;2022-09-09T07:59:46;11.75;;;2.47;;
23826;SDS011;12094;50.822;4.376;2022-09-09T08:02:13;14.18;;;3.25;;
23826;SDS011;12094;50.822;4.376;2022-09-09T08:04:45;11.85;;;2.70;;
23826;SDS011;12094;50.822;4.376;2022-09-09T08:07:15;9.98;;;2.55;;
23826;SDS011;12094;50.822;4.376;2022-09-09T08:09:49;10.57;;;2.40;;
23826;SDS011;12094;50.822;4.376;2022-09-09T08:12:36;10.38;;;2.28;;
23826;SDS011;12094;50.822;4.376;2022-09-09T08:15:03;13.75;;;2.70;;
23826;SDS011;12094;50.822;4.376;2022-09-09T08:17:32;12.48;;;2.70;;
23826;SDS011;12094;50.822;4.376;2022-09-09T08:20:03;13.82;;;3.00;;
23826;SDS011;12094;50.822;4.376;2022-09-09T08:22:32;10.20;;;1.83;;
23826;SDS011;12094;50.822;4.376;2022-09-09T08:25:00;8.55;;;2.28;;
23826;SDS011;12094;50.822;4.376;2022-09-09T08:27:31;13.95;;;3.42;;
23826;SDS011;12094;50.822;4.376;2022-09-09T08:29:59;17.55;;;2.90;;
23826;SDS011;12094;50.822;4.376;2022-09-09T08:32:29;15.27;;;2.83;;
23826;SDS011;12094;50.822;4.376;2022-09-09T08:34:55;7.68;;;1.77;;
23826;SDS011;12094;50.822;4.376;2022-09-09T08:37:28;10.82;;;2.33;;
23826;SDS011;12094;50.822;4.376;2022-09-09T08:39:55;10.93;;;2.30;;
23826;SDS011;12094;50.822;4.376;2022-09-09T08:45:29;13.68;;;2.78;;
23826;SDS011;12094;50.822;4.376;2022-09-09T08:50:37;6.85;;;1.58;;
23826;SDS011;12094;50.822;4.376;2022-09-09T08:53:21;8.10;;;2.47;;
23826;SDS011;12094;50.822;4.376;2022-09-09T08:56:04;10.18;;;2.50;;
23826;SDS011;12094;50.822;4.376;2022-09-09T08:58:47;13.82;;;3.10;;
23826;SDS011;12094;50.822;4.376;2022-09-09T09:01:24;11.35;;;2.50;;
23826;SDS011;12094;50.822;4.376;2022-09-09T09:12:06;14.57;;;2.50;;
23826;SDS011;12094;50.822;4.376;2022-09-09T09:14:48;11.88;;;2.60;;
23826;SDS011;12094;50.822;4.376;2022-09-09T09:19:46;11.85;;;2.40;;
23826;SDS011;12094;50.822;4.376;2022-09-09T09:31:10;11.43;;;2.47;;
23826;SDS011;12094;50.822;4.376;2022-09-09T09:33:55;10.20;;;2.38;;
23826;SDS011;12094;50.822;4.376;2022-09-09T09:36:37;16.05;;;2.88;;
23826;SDS011;12094;50.822;4.376;2022-09-09T09:39:23;11.68;;;2.88;;
23826;SDS011;12094;50.822;4.376;2022-09-09T09:42:12;10.50;;;2.70;;
23826;SDS011;12094;50.822;4.376;2022-09-09T09:44:48;9.07;;;2.47;;
23826;SDS011;12094;50.822;4.376;2022-09-09T09:47:19;13.52;;;2.50;;
23826;SDS011;12094;50.822;4.376;2022-09-09T09:50:18;10.77;;;2.60;;
23826;SDS011;12094;50.822;4.376;2022-09-09T09:52:56;14.05;;;4.40;;
23826;SDS011;12094;50.822;4.376;2022-09-09T09:55:28;12.52;;;2.47;;
23826;SDS011;12094;50.822;4.376;2022-09-09T09:58:01;9.32;;;2.33;;
23826;SDS011;12094;50.822;4.376;2022-09-09T10:00:31;10.45;;;2.50;;
23826;SDS011;12094;50.822;4.376;2022-09-09T10:03:28;9.50;;;2.88;;
23826;SDS011;12094;50.822;4.376;2022-09-09T10:05:56;11.65;;;2.35;;
23826;SDS011;12094;50.822;4.376;2022-09-09T10:08:25;6.15;;;2.13;;
23826;SDS011;12094;50.822;4.376;2022-09-09T10:14:40;8.05;;;2.10;;
23826;SDS011;12094;50.822;4.376;2022-09-09T10:19:37;10.52;;;2.53;;
23826;SDS011;12094;50.822;4.376;2022-09-09T10:22:17;11.30;;;3.10;;
23826;SDS011;12094;50.822;4.376;2022-09-09T10:27:51;11.10;;;3.25;;
23826;SDS011;12094;50.822;4.376;2022-09-09T10:33:57;9.88;;;2.75;;
23826;SDS011;12094;50.822;4.376;2022-09-09T10:36:47;11.30;;;2.60;;
23826;SDS011;12094;50.822;4.376;2022-09-09T10:39:36;6.20;;;2.25;;
23826;SDS011;12094;50.822;4.376;2022-09-09T10:42:15;13.90;;;3.38;;
23826;SDS011;12094;50.822;4.376;2022-09-09T10:53:18;8.05;;;2.60;;
23826;SDS011;12094;50.822;4.376;2022-09-09T10:55:53;7.25;;;1.63;;
23826;SDS011;12094;50.822;4.376;2022-09-09T10:58:32;10.48;;;2.70;;
23826;SDS011;12094;50.822;4.376;2022-09-09T11:01:32;14.60;;;2.42;;
23826;SDS011;12094;50.822;4.376;2022-09-09T11:04:10;9.52;;;2.15;;
23826;SDS011;12094;50.822;4.376;2022-09-09T11:06:44;10.57;;;2.72;;
23826;SDS011;12094;50.822;4.376;2022-09-09T11:09:19;8.32;;;2.10;;
23826;SDS011;12094;50.822;4.376;2022-09-09T11:11:54;9.40;;;2.47;;
23826;SDS011;12094;50.822;4.376;2022-09-09T11:14:31;8.73;;;1.70;;
23826;SDS011;12094;50.822;4.376;2022-09-09T11:17:29;7.82;;;2.15;;
23826;SDS011;12094;50.822;4.376;2022-09-09T11:20:13;7.97;;;2.22;;
23826;SDS011;12094;50.822;4.376;2022-09-09T11:22:46;8.20;;;2.17;;
23826;SDS011;12094;50.822;4.376;2022-09-09T11:25:25;6.65;;;1.77;;
23826;SDS011;12094;50.822;4.376;2022-09-09T11:28:04;10.10;;;2.55;;
23826;SDS011;12094;50.822;4.376;2022-09-09T11:39:33;7.80;;;2.00;;
23826;SDS011;12094;50.822;4.376;2022-09-09T11:44:40;13.65;;;2.28;;
23826;SDS011;12094;50.822;4.376;2022-09-09T11:47:16;6.68;;;2.20;;
23826;SDS011;12094;50.822;4.376;2022-09-09T11:49:50;8.67;;;2.13;;
23826;SDS011;12094;50.822;4.376;2022-09-09T11:52:23;6.38;;;1.88;;
23826;SDS011;12094;50.822;4.376;2022-09-09T11:55:35;8.27;;;2.00;;
23826;SDS011;12094;50.822;4.376;2022-09-09T11:57:59;8.52;;;1.65;;
23826;SDS011;12094;50.822;4.376;2022-09-09T12:00:38;7.32;;;1.95;;
23826;SDS011;12094;50.822;4.376;2022-09-09T12:09:05;8.93;;;2.38;;
23826;SDS011;12094;50.822;4.376;2022-09-09T12:11:45;8.75;;;2.35;;
23826;SDS011;12094;50.822;4.376;2022-09-09T12:14:34;11.38;;;2.13;;
23826;SDS011;12094;50.822;4.376;2022-09-09T12:19:41;6.78;;;1.77;;
23826;SDS011;12094;50.822;4.376;2022-09-09T12:22:22;11.15;;;2.13;;
23826;SDS011;12094;50.822;4.376;2022-09-09T12:28:05;9.18;;;2.25;;
23826;SDS011;12094;50.822;4.376;2022-09-09T12:30:49;11.02;;;2.25;;
23826;SDS011;12094;50.822;4.376;2022-09-09T12:33:37;7.13;;;1.70;;
23826;SDS011;12094;50.822;4.376;2022-09-09T12:36:11;13.57;;;2.33;;
23826;SDS011;12094;50.822;4.376;2022-09-09T12:38:42;6.80;;;1.73;;
23826;SDS011;12094;50.822;4.376;2022-09-09T12:41:18;9.68;;;2.03;;
23826;SDS011;12094;50.822;4.376;2022-09-09T12:43:48;8.20;;;1.48;;
23826;SDS011;12094;50.822;4.376;2022-09-09T12:46:33;6.70;;;1.80;;
23826;SDS011;12094;50.822;4.376;2022-09-09T12:49:04;5.63;;;1.55;;
23826;SDS011;12094;50.822;4.376;2022-09-09T12:51:32;3.25;;;1.35;;
23826;SDS011;12094;50.822;4.376;2022-09-09T12:54:00;8.40;;;2.08;;
23826;SDS011;12094;50.822;4.376;2022-09-09T12:56:29;7.15;;;1.75;;
23826;SDS011;12094;50.822;4.376;2022-09-09T12:58:59;7.55;;;1.65;;
23826;SDS011;12094;50.822;4.376;2022-09-09T13:01:28;7.63;;;2.10;;
23826;SDS011;12094;50.822;4.376;2022-09-09T13:03:56;9.75;;;2.25;;
23826;SDS011;12094;50.822;4.376;2022-09-09T13:06:25;7.07;;;2.17;;
23826;SDS011;12094;50.822;4.376;2022-09-09T13:08:56;5.07;;;1.55;;
23826;SDS011;12094;50.822;4.376;2022-09-09T13:14:02;7.82;;;2.17;;
23826;SDS011;12094;50.822;4.376;2022-09-09T13:16:30;8.23;;;1.83;;
23826;SDS011;12094;50.822;4.376;2022-09-09T13:19:08;5.85;;;2.13;;
23826;SDS011;12094;50.822;4.376;2022-09-09T13:21:41;4.53;;;1.75;;
23826;SDS011;12094;50.822;4.376;2022-09-09T13:26:59;8.40;;;1.83;;
23826;SDS011;12094;50.822;4.376;2022-09-09T13:29:29;7.80;;;1.92;;
23826;SDS011;12094;50.822;4.376;2022-09-09T13:32:15;7.93;;;1.50;;
23826;SDS011;12094;50.822;4.376;2022-09-09T13:34:53;4.65;;;1.60;;
23826;SDS011;12094;50.822;4.376;2022-09-09T13:37:31;3.58;;;1.35;;
23826;SDS011;12094;50.822;4.376;2022-09-09T13:40:17;9.90;;;1.83;;
23826;SDS011;12094;50.822;4.376;2022-09-09T13:42:46;6.05;;;1.67;;
23826;SDS011;12094;50.822;4.376;2022-09-09T13:45:18;5.82;;;1.45;;
23826;SDS011;12094;50.822;4.376;2022-09-09T13:47:47;6.75;;;1.77;;
23826;SDS011;12094;50.822;4.376;2022-09-09T13:50:19;6.25;;;1.67;;
23826;SDS011;12094;50.822;4.376;2022-09-09T13:52:52;5.40;;;1.30;;
23826;SDS011;12094;50.822;4.376;2022-09-09T13:55:21;5.22;;;1.50;;
23826;SDS011;12094;50.822;4.376;2022-09-09T14:00:17;5.15;;;1.33;;
23826;SDS011;12094;50.822;4.376;2022-09-09T14:02:46;5.28;;;1.30;;
23826;SDS011;12094;50.822;4.376;2022-09-09T14:05:15;5.07;;;1.60;;
23826;SDS011;12094;50.822;4.376;2022-09-09T14:07:43;6.13;;;1.75;;
23826;SDS011;12094;50.822;4.376;2022-09-09T14:10:15;5.60;;;1.88;;
23826;SDS011;12094;50.822;4.376;2022-09-09T14:12:43;6.32;;;1.77;;
23826;SDS011;12094;50.822;4.376;2022-09-09T14:15:10;7.25;;;1.67;;
23826;SDS011;12094;50.822;4.376;2022-09-09T14:17:39;8.73;;;2.55;;
23826;SDS011;12094;50.822;4.376;2022-09-09T14:20:08;5.00;;;1.80;;
23826;SDS011;12094;50.822;4.376;2022-09-09T14:22:37;6.78;;;1.45;;
23826;SDS011;12094;50.822;4.376;2022-09-09T14:25:06;3.33;;;1.38;;
23826;SDS011;12094;50.822;4.376;2022-09-09T14:27:34;5.20;;;1.88;;
23826;SDS011;12094;50.822;4.376;2022-09-09T14:30:01;6.50;;;1.80;;
23826;SDS011;12094;50.822;4.376;2022-09-09T14:32:28;6.38;;;1.80;;
23826;SDS011;12094;50.822;4.376;2022-09-09T14:34:55;7.55;;;1.83;;
23826;SDS011;12094;50.822;4.376;2022-09-09T14:37:22;8.30;;;2.20;;
23826;SDS011;12094;50.822;4.376;2022-09-09T14:39:50;5.25;;;1.90;;
23826;SDS011;12094;50.822;4.376;2022-09-09T14:42:17;10.30;;;1.80;;
23826;SDS011;12094;50.822;4.376;2022-09-09T14:44:46;5.13;;;1.67;;
23826;SDS011;12094;50.822;4.376;2022-09-09T14:47:14;7.32;;;1.88;;
23826;SDS011;12094;50.822;4.376;2022-09-09T14:49:42;4.32;;;1.60;;
23826;SDS011;12094;50.822;4.376;2022-09-09T14:52:13;6.40;;;1.25;;
23826;SDS011;12094;50.822;4.376;2022-09-09T14:54:42;6.15;;;1.30;;
23826;SDS011;12094;50.822;4.376;2022-09-09T14:57:10;5.68;;;1.67;;
23826;SDS011;12094;50.822;4.376;2022-09-09T14:59:37;8.00;;;1.52;;
23826;SDS011;12094;50.822;4.376;2022-09-09T15:02:04;10.82;;;1.80;;
23826;SDS011;12094;50.822;4.376;2022-09-09T15:04:32;5.35;;;1.73;;
23826;SDS011;12094;50.822;4.376;2022-09-09T15:06:59;8.10;;;1.60;;
23826;SDS011;12094;50.822;4.376;2022-09-09T15:09:27;7.40;;;1.70;;
23826;SDS011;12094;50.822;4.376;2022-09-09T15:11:53;9.15;;;1.90;;
23826;SDS011;12094;50.822;4.376;2022-09-09T15:14:22;5.05;;;1.67;;
23826;SDS011;12094;50.822;4.376;2022-09-09T15:16:52;4.57;;;1.15;;
23826;SDS011;12094;50.822;4.376;2022-09-09T15:19:20;6.55;;;1.70;;
23826;SDS011;12094;50.822;4.376;2022-09-09T15:21:48;3.95;;;1.50;;
23826;SDS011;12094;50.822;4.376;2022-09-09T15:24:15;8.77;;;1.52;;
23826;SDS011;12094;50.822;4.376;2022-09-09T15:26:43;8.50;;;1.95;;
23826;SDS011;12094;50.822;4.376;2022-09-09T15:29:11;6.97;;;1.50;;
23826;SDS011;12094;50.822;4.376;2022-09-09T15:31:40;6.40;;;1.60;;
23826;SDS011;12094;50.822;4.376;2022-09-09T15:34:08;3.88;;;1.45;;
23826;SDS011;12094;50.822;4.376;2022-09-09T15:36:36;6.85;;;1.80;;
23826;SDS011;12094;50.822;4.376;2022-09-09T15:39:05;5.63;;;1.95;;
23826;SDS011;12094;50.822;4.376;2022-09-09T15:41:34;5.32;;;1.67;;
23826;SDS011;12094;50.822;4.376;2022-09-09T15:44:02;6.47;;;1.90;;
23826;SDS011;12094;50.822;4.376;2022-09-09T15:49:08;9.07;;;1.80;;
23826;SDS011;12094;50.822;4.376;2022-09-09T15:51:41;5.80;;;1.58;;
23826;SDS011;12094;50.822;4.376;2022-09-09T15:54:11;5.88;;;1.52;;
23826;SDS011;12094;50.822;4.376;2022-09-09T15:56:40;6.18;;;1.50;;
23826;SDS011;12094;50.822;4.376;2022-09-09T15:59:07;4.97;;;1.60;;
23826;SDS011;12094;50.822;4.376;2022-09-09T16:01:34;4.95;;;1.90;;
23826;SDS011;12094;50.822;4.376;2022-09-09T16:04:02;6.75;;;1.75;;
23826;SDS011;12094;50.822;4.376;2022-09-09T16:06:31;4.60;;;1.48;;
23826;SDS011;12094;50.822;4.376;2022-09-09T16:09:00;7.82;;;2.17;;
23826;SDS011;12094;50.822;4.376;2022-09-09T16:11:31;7.20;;;2.28;;
23826;SDS011;12094;50.822;4.376;2022-09-09T16:14:02;6.05;;;1.70;;
23826;SDS011;12094;50.822;4.376;2022-09-09T16:16:30;5.78;;;2.20;;
23826;SDS011;12094;50.822;4.376;2022-09-09T16:18:58;6.68;;;2.10;;
23826;SDS011;12094;50.822;4.376;2022-09-09T16:21:28;7.75;;;2.30;;
23826;SDS011;12094;50.822;4.376;2022-09-09T16:23:57;7.60;;;2.30;;
23826;SDS011;12094;50.822;4.376;2022-09-09T16:28:57;8.05;;;2.22;;
23826;SDS011;12094;50.822;4.376;2022-09-09T16:31:28;9.13;;;2.88;;
23826;SDS011;12094;50.822;4.376;2022-09-09T16:33:56;9.85;;;2.70;;
23826;SDS011;12094;50.822;4.376;2022-09-09T16:36:25;8.88;;;2.50;;
23826;SDS011;12094;50.822;4.376;2022-09-09T16:38:56;6.72;;;2.53;;
23826;SDS011;12094;50.822;4.376;2022-09-09T16:41:28;9.07;;;2.08;;
23826;SDS011;12094;50.822;4.376;2022-09-09T16:44:02;10.32;;;2.20;;
23826;SDS011;12094;50.822;4.376;2022-09-09T16:46:32;4.82;;;2.10;;
23826;SDS011;12094;50.822;4.376;2022-09-09T16:49:06;7.97;;;2.38;;
23826;SDS011;12094;50.822;4.376;2022-09-09T16:51:40;8.00;;;2.92;;
23826;SDS011;12094;50.822;4.376;2022-09-09T16:54:08;6.22;;;1.90;;
23826;SDS011;12094;50.822;4.376;2022-09-09T16:56:38;6.25;;;1.98;;
23826;SDS011;12094;50.822;4.376;2022-09-09T16:59:15;8.13;;;2.45;;
23826;SDS011;12094;50.822;4.376;2022-09-09T17:01:48;8.73;;;2.55;;
23826;SDS011;12094;50.822;4.376;2022-09-09T17:04:21;5.70;;;2.22;;
23826;SDS011;12094;50.822;4.376;2022-09-09T17:06:52;6.63;;;1.88;;
23826;SDS011;12094;50.822;4.376;2022-09-09T17:09:20;9.18;;;2.03;;
23826;SDS011;12094;50.822;4.376;2022-09-09T17:11:48;7.55;;;2.70;;
23826;SDS011;12094;50.822;4.376;2022-09-09T17:14:18;9.38;;;2.50;;
23826;SDS011;12094;50.822;4.376;2022-09-09T17:16:48;6.75;;;2.75;;
23826;SDS011;12094;50.822;4.376;2022-09-09T17:19:16;8.27;;;2.28;;
23826;SDS011;12094;50.822;4.376;2022-09-09T17:21:43;6.75;;;1.90;;
23826;SDS011;12094;50.822;4.376;2022-09-09T17:24:33;5.85;;;2.08;;
23826;SDS011;12094;50.822;4.376;2022-09-09T17:27:00;9.63;;;2.00;;
23826;SDS011;12094;50.822;4.376;2022-09-09T17:29:29;8.57;;;2.22;;
23826;SDS011;12094;50.822;4.376;2022-09-09T17:31:56;11.65;;;2.13;;
23826;SDS011;12094;50.822;4.376;2022-09-09T17:34:24;10.63;;;1.90;;
23826;SDS011;12094;50.822;4.376;2022-09-09T17:36:51;8.00;;;1.92;;
23826;SDS011;12094;50.822;4.376;2022-09-09T17:39:19;9.48;;;2.40;;